createdAt,value
2023-12-21T00:00:46.058Z,3.80
2023-12-21T00:05:49.326Z,3.80
2023-12-21T00:10:54.104Z,3.90
2023-12-21T00:15:57.631Z,4.00
2023-12-21T00:21:00.853Z,3.90
2023-12-21T00:26:05.731Z,4.10
2023-12-21T00:31:09.290Z,4.20
2023-12-21T00:36:17.809Z,4.20
2023-12-21T00:41:22.469Z,4.20
2023-12-21T00:46:25.744Z,4.20
2023-12-21T00:51:29.063Z,4.20
2023-12-21T00:56:33.676Z,4.20
2023-12-21T01:01:36.868Z,4.20
2023-12-21T01:06:40.421Z,4.20
2023-12-21T01:11:45.532Z,4.30
2023-12-21T01:16:48.968Z,4.20
2023-12-21T01:21:52.243Z,4.30
2023-12-21T01:26:56.859Z,4.30
2023-12-21T01:32:01.284Z,4.20
2023-12-21T01:37:04.715Z,4.30
2023-12-21T01:42:09.442Z,4.40
2023-12-21T01:47:12.793Z,4.30
2023-12-21T01:52:16.153Z,4.30
2023-12-21T01:57:20.952Z,4.40
2023-12-21T02:02:24.174Z,4.30
2023-12-21T02:07:27.445Z,4.40
2023-12-21T02:12:32.991Z,4.40
2023-12-21T02:17:37.435Z,4.30
2023-12-21T02:22:42.257Z,4.30
2023-12-21T02:27:50.767Z,4.30
2023-12-21T02:32:54.030Z,4.40
2023-12-21T02:37:57.250Z,4.40
2023-12-21T02:43:01.837Z,4.40
2023-12-21T02:48:05.282Z,4.40
2023-12-21T02:53:08.460Z,4.40
2023-12-21T02:58:13.116Z,4.40
2023-12-21T03:03:16.457Z,4.40
2023-12-21T03:08:19.757Z,4.50
2023-12-21T03:13:24.393Z,4.50
2023-12-21T03:18:27.617Z,4.60
2023-12-21T03:23:31.961Z,4.70
2023-12-21T03:28:36.664Z,4.70
2023-12-21T03:33:40.054Z,4.70
2023-12-21T03:38:43.429Z,4.70
2023-12-21T03:43:48.138Z,4.70
2023-12-21T03:48:51.491Z,4.70
2023-12-21T03:53:54.735Z,4.70
2023-12-21T03:58:59.272Z,4.70
2023-12-21T04:04:02.925Z,4.70
2023-12-21T04:09:07.222Z,4.70
2023-12-21T04:14:11.759Z,4.70
2023-12-21T04:19:15.301Z,4.70
2023-12-21T04:24:19.177Z,4.70
2023-12-21T04:29:23.760Z,4.70
2023-12-21T04:34:27.023Z,4.70
2023-12-21T04:39:30.283Z,4.60
2023-12-21T04:44:34.875Z,4.70
2023-12-21T04:49:38.015Z,4.70
2023-12-21T04:54:41.725Z,4.70
2023-12-21T04:59:46.283Z,4.70
2023-12-21T05:04:49.502Z,4.70
2023-12-21T05:09:52.708Z,4.70
2023-12-21T05:14:57.373Z,4.70
2023-12-21T05:20:00.809Z,4.70
2023-12-21T05:25:04.387Z,4.60
2023-12-21T05:30:10.534Z,4.60
2023-12-21T05:35:14.005Z,4.50
2023-12-21T05:40:17.580Z,4.50
2023-12-21T05:45:22.265Z,4.50
2023-12-21T05:50:25.458Z,4.50
2023-12-21T05:55:30.736Z,4.50
2023-12-21T06:00:37.814Z,4.50
2023-12-21T06:05:41.918Z,4.50
2023-12-21T06:10:45.136Z,4.50
2023-12-21T06:15:50.988Z,4.40
2023-12-21T06:20:54.487Z,4.40
2023-12-21T06:25:57.693Z,4.50
2023-12-21T06:31:02.356Z,4.50
2023-12-21T06:36:06.078Z,4.60
2023-12-21T06:41:09.290Z,4.50
2023-12-21T06:46:15.550Z,4.50
2023-12-21T06:51:18.783Z,4.60
2023-12-21T06:56:32.360Z,4.60
2023-12-21T07:01:39.250Z,4.50
2023-12-21T07:06:42.500Z,4.50
2023-12-21T07:11:46.857Z,4.50
2023-12-21T07:16:53.372Z,4.50
2023-12-21T07:21:56.625Z,4.50
2023-12-21T07:26:59.849Z,4.50
2023-12-21T07:32:04.894Z,4.50
2023-12-21T07:37:08.791Z,4.60
2023-12-21T07:42:12.061Z,4.60
2023-12-21T07:47:16.663Z,4.70
2023-12-21T07:52:19.981Z,4.70
2023-12-21T07:57:25.132Z,4.70
2023-12-21T08:02:29.885Z,4.70
2023-12-21T08:07:33.169Z,4.80
2023-12-21T08:12:36.628Z,4.80
2023-12-21T08:17:42.056Z,4.90
2023-12-21T08:22:46.524Z,4.90
2023-12-21T08:27:50.266Z,5.00
2023-12-21T08:32:55.022Z,5.00
2023-12-21T08:38:00.489Z,5.10
2023-12-21T08:43:03.984Z,5.20
2023-12-21T08:48:09.317Z,5.20
2023-12-21T08:53:12.530Z,5.20
2023-12-21T08:58:15.789Z,5.30
2023-12-21T09:03:20.556Z,5.30
2023-12-21T09:08:23.921Z,5.30
2023-12-21T09:13:27.222Z,5.40
2023-12-21T09:18:32.234Z,5.40
2023-12-21T09:23:35.650Z,5.40
2023-12-21T09:28:40.932Z,5.40
2023-12-21T09:33:45.529Z,5.50
2023-12-21T09:38:49.333Z,5.60
2023-12-21T09:43:55.182Z,5.60
2023-12-21T09:49:00.083Z,5.60
2023-12-21T09:54:05.626Z,5.70
2023-12-21T09:59:11.658Z,5.70
2023-12-21T10:04:16.299Z,5.80
2023-12-21T10:09:19.670Z,5.80
2023-12-21T10:14:22.965Z,5.60
2023-12-21T10:19:27.737Z,5.60
2023-12-21T10:24:31.106Z,5.60
2023-12-21T10:29:34.353Z,5.70
2023-12-21T10:34:39.498Z,5.80
2023-12-21T10:39:43.205Z,5.90
2023-12-21T10:44:47.181Z,5.90
2023-12-21T10:49:53.231Z,5.80
2023-12-21T10:54:58.073Z,5.80
2023-12-21T11:00:02.132Z,5.70
2023-12-21T11:05:07.921Z,5.70
2023-12-21T11:10:12.173Z,5.70
2023-12-21T11:15:17.108Z,5.60
2023-12-21T11:20:35.029Z,5.60
2023-12-21T11:25:45.075Z,5.50
2023-12-21T11:30:48.408Z,5.50
2023-12-21T11:35:55.853Z,5.50
2023-12-21T11:41:00.518Z,5.50
2023-12-21T11:46:06.246Z,5.50
2023-12-21T11:51:11.093Z,5.50
2023-12-21T11:56:15.507Z,5.50
2023-12-21T12:01:27.300Z,5.60
2023-12-21T12:06:33.389Z,5.60
2023-12-21T12:11:36.617Z,5.50
2023-12-21T12:16:39.956Z,5.50
2023-12-21T12:21:44.522Z,5.50
2023-12-21T12:26:47.985Z,5.60
2023-12-21T12:31:51.454Z,5.60
2023-12-21T12:36:56.464Z,5.70
2023-12-21T12:42:00.039Z,5.80
2023-12-21T12:47:05.344Z,5.80
2023-12-21T12:52:10.238Z,5.80
2023-12-21T12:57:13.473Z,5.80
2023-12-21T13:02:16.947Z,5.80
2023-12-21T13:07:24.653Z,5.80
2023-12-21T13:12:29.121Z,5.80
2023-12-21T13:17:32.360Z,5.80
2023-12-21T13:22:37.003Z,5.80
2023-12-21T13:27:40.880Z,5.80
2023-12-21T13:32:44.245Z,5.80
2023-12-21T13:37:49.650Z,5.80
2023-12-21T13:42:53.020Z,5.80
2023-12-21T13:47:56.387Z,5.80
2023-12-21T13:53:01.641Z,5.90
2023-12-21T13:58:05.841Z,5.80
2023-12-21T14:03:10.058Z,5.80
2023-12-21T14:08:14.666Z,5.90
2023-12-21T14:13:19.413Z,5.90
2023-12-21T14:18:22.637Z,5.90
2023-12-21T14:23:27.512Z,5.90
2023-12-21T14:28:39.148Z,5.90
2023-12-21T14:33:46.935Z,5.90
2023-12-21T14:38:51.822Z,5.90
2023-12-21T14:43:55.167Z,6.00
2023-12-21T14:48:58.491Z,6.00
2023-12-21T14:54:03.886Z,6.00
2023-12-21T14:59:07.156Z,6.00
2023-12-21T15:04:10.405Z,6.00
2023-12-21T15:09:15.197Z,6.00
2023-12-21T15:14:18.370Z,6.00
2023-12-21T15:19:21.630Z,6.00
2023-12-21T15:24:26.345Z,6.00
2023-12-21T15:29:31.329Z,6.00
2023-12-21T15:34:36.057Z,6.10
2023-12-21T15:39:45.137Z,6.10
2023-12-21T15:44:48.371Z,6.20
2023-12-21T15:49:51.607Z,6.20
2023-12-21T15:54:56.373Z,6.10
2023-12-21T15:59:59.549Z,6.10
2023-12-21T16:05:03.102Z,6.10
2023-12-21T16:10:08.708Z,6.10
2023-12-21T16:15:12.605Z,6.10
2023-12-21T16:20:18.745Z,6.10
2023-12-21T16:25:23.456Z,6.10
2023-12-21T16:30:26.662Z,6.20
2023-12-21T16:35:30.108Z,6.10
2023-12-21T16:40:34.769Z,6.10
2023-12-21T16:45:38.011Z,6.20
2023-12-21T16:50:41.248Z,6.30
2023-12-21T16:55:46.449Z,6.30
2023-12-21T17:00:50.206Z,6.40
2023-12-21T17:05:54.250Z,6.40
2023-12-21T17:10:58.845Z,6.50
2023-12-21T17:16:02.924Z,6.50
2023-12-21T17:21:06.306Z,6.50
2023-12-21T17:26:11.043Z,6.60
2023-12-21T17:31:14.306Z,6.60
2023-12-21T17:36:17.628Z,6.70
2023-12-21T17:41:22.181Z,6.70
2023-12-21T17:46:25.729Z,6.70
2023-12-21T17:51:29.161Z,6.70
2023-12-21T17:56:34.060Z,6.70
2023-12-21T18:01:37.318Z,6.70
2023-12-21T18:06:40.527Z,6.70
2023-12-21T18:11:46.115Z,6.70
2023-12-21T18:16:50.246Z,6.80
2023-12-21T18:21:53.480Z,6.90
2023-12-21T18:26:58.032Z,6.90
2023-12-21T18:32:01.279Z,6.90
2023-12-21T18:37:04.971Z,7.10
2023-12-21T18:42:09.500Z,7.10
2023-12-21T18:47:13.220Z,7.20
2023-12-21T18:52:16.430Z,7.30
2023-12-21T18:57:21.133Z,7.30
2023-12-21T19:02:24.584Z,7.30
2023-12-21T19:07:28.144Z,7.70
2023-12-21T19:12:32.685Z,7.60
2023-12-21T19:17:36.905Z,7.60
2023-12-21T19:22:40.551Z,7.70
2023-12-21T19:27:45.365Z,8.20
2023-12-21T19:32:48.790Z,8.50
2023-12-21T19:37:52.329Z,9.60
2023-12-21T19:42:57.140Z,9.80
2023-12-21T19:48:00.353Z,9.20
2023-12-21T19:53:03.671Z,9.70
2023-12-21T19:58:10.546Z,9.80
2023-12-21T20:03:14.526Z,9.40
2023-12-21T20:08:18.384Z,9.20
2023-12-21T20:13:23.020Z,8.80
2023-12-21T20:18:27.828Z,8.90
2023-12-21T20:23:31.501Z,9.90
2023-12-21T20:28:37.271Z,9.70
2023-12-21T20:33:40.703Z,9.80
2023-12-21T20:38:43.880Z,9.50
2023-12-21T20:43:49.789Z,9.20
2023-12-21T20:48:53.242Z,9.00
2023-12-21T20:53:56.393Z,8.90
2023-12-21T20:59:00.959Z,9.00
2023-12-21T21:04:04.610Z,9.20
2023-12-21T21:09:10.394Z,9.20
2023-12-21T21:14:15.116Z,9.00
2023-12-21T21:19:18.326Z,9.00
2023-12-21T21:24:21.529Z,8.90
2023-12-21T21:29:26.488Z,8.90
2023-12-21T21:34:29.702Z,8.80
2023-12-21T21:39:33.689Z,9.40
2023-12-21T21:44:39.122Z,9.20
2023-12-21T21:49:42.308Z,9.10
2023-12-21T21:54:45.484Z,9.10
2023-12-21T21:59:50.060Z,9.60
2023-12-21T22:04:53.419Z,9.80
2023-12-21T22:09:56.765Z,9.50
2023-12-21T22:15:01.369Z,9.60
2023-12-21T22:20:04.864Z,9.30
2023-12-21T22:25:09.834Z,9.10
2023-12-21T22:30:15.209Z,9.10
2023-12-21T22:35:18.557Z,8.90
2023-12-21T22:40:21.900Z,9.00
2023-12-21T22:45:26.762Z,9.20
2023-12-21T22:50:30.023Z,9.10
2023-12-21T22:55:33.296Z,9.10
2023-12-21T23:00:37.892Z,9.20
2023-12-21T23:05:42.579Z,9.20
2023-12-21T23:10:45.936Z,9.00
2023-12-21T23:15:50.686Z,9.40
2023-12-21T23:20:53.857Z,9.70
2023-12-21T23:25:57.185Z,9.50
2023-12-21T23:31:01.813Z,9.70
2023-12-21T23:36:05.916Z,9.50
2023-12-21T23:41:09.095Z,9.30
2023-12-21T23:46:13.713Z,9.30
2023-12-21T23:51:17.103Z,9.40
2023-12-21T23:56:20.328Z,9.10
